createdAt,value
2022-09-15T00:00:56.499Z,12.15
2022-09-15T00:01:56.896Z,12.11
2022-09-15T00:02:56.741Z,12.09
2022-09-15T00:03:56.197Z,12.1
2022-09-15T00:04:56.750Z,12.12
2022-09-15T00:05:56.085Z,12.13
2022-09-15T00:06:56.107Z,12.14
2022-09-15T00:07:56.097Z,12.15
2022-09-15T00:08:56.099Z,12.13
2022-09-15T00:09:56.098Z,12.11
2022-09-15T00:10:56.104Z,12.12
2022-09-15T00:11:56.109Z,12.13
2022-09-15T00:12:56.144Z,12.13
2022-09-15T00:13:56.096Z,12.13
2022-09-15T00:14:56.103Z,12.14
2022-09-15T00:15:56.089Z,12.13
2022-09-15T00:16:56.143Z,12.11
2022-09-15T00:17:56.109Z,12.1
2022-09-15T00:18:56.088Z,12.1
2022-09-15T00:19:56.099Z,12.09
2022-09-15T00:20:56.102Z,12.1
2022-09-15T00:21:56.089Z,12.09
2022-09-15T00:22:56.131Z,12.1
2022-09-15T00:23:56.094Z,12.08
2022-09-15T00:24:56.126Z,12.07
2022-09-15T00:25:56.125Z,12.06
2022-09-15T00:26:56.102Z,12.05
2022-09-15T00:27:56.132Z,12.03
2022-09-15T00:28:56.093Z,12.01
2022-09-15T00:29:56.086Z,12
2022-09-15T00:30:56.226Z,11.99
2022-09-15T00:31:56.083Z,11.98
2022-09-15T00:32:56.110Z,11.96
2022-09-15T00:33:56.144Z,11.96
2022-09-15T00:34:56.377Z,11.95
2022-09-15T00:35:56.548Z,11.94
2022-09-15T00:36:56.636Z,11.93
2022-09-15T00:37:56.256Z,11.92
2022-09-15T00:38:56.333Z,11.93
2022-09-15T00:39:57.549Z,11.92
2022-09-15T00:40:56.876Z,11.92
2022-09-15T00:41:57.108Z,11.92
2022-09-15T00:42:56.900Z,11.92
2022-09-15T00:43:56.177Z,11.91
2022-09-15T00:44:56.107Z,11.9
2022-09-15T00:45:56.371Z,11.9
2022-09-15T00:47:18.044Z,11.9
2022-09-15T00:47:56.092Z,11.91
2022-09-15T00:48:56.175Z,11.91
2022-09-15T00:49:59.287Z,11.9
2022-09-15T00:50:56.656Z,11.9
2022-09-15T00:51:56.433Z,11.9
2022-09-15T00:52:56.217Z,11.9
2022-09-15T00:53:56.487Z,11.9
2022-09-15T00:54:56.315Z,11.92
2022-09-15T00:55:56.536Z,11.92
2022-09-15T00:56:56.812Z,11.92
2022-09-15T00:57:56.709Z,11.91
2022-09-15T00:58:56.379Z,11.9
2022-09-15T00:59:56.469Z,11.88
2022-09-15T01:00:56.167Z,11.87
2022-09-15T01:01:56.248Z,11.85
2022-09-15T01:02:56.485Z,11.84
2022-09-15T01:03:56.092Z,11.83
2022-09-15T01:04:59.392Z,11.84
2022-09-15T01:05:56.203Z,11.83
2022-09-15T01:06:56.463Z,11.82
2022-09-15T01:07:56.381Z,11.81
2022-09-15T01:08:56.475Z,11.79
2022-09-15T01:09:56.093Z,11.79
2022-09-15T01:10:56.113Z,11.78
2022-09-15T01:11:56.270Z,11.78
2022-09-15T01:12:56.109Z,11.76
2022-09-15T01:13:56.094Z,11.75
2022-09-15T01:14:56.088Z,11.75
2022-09-15T01:15:56.089Z,11.75
2022-09-15T01:16:56.207Z,11.74
2022-09-15T01:17:56.102Z,11.75
2022-09-15T01:18:56.109Z,11.75
2022-09-15T01:19:56.126Z,11.75
2022-09-15T01:20:56.093Z,11.76
2022-09-15T01:21:59.340Z,11.75
2022-09-15T01:22:56.114Z,11.75
2022-09-15T01:23:56.096Z,11.74
2022-09-15T01:24:56.120Z,11.73
2022-09-15T01:25:56.098Z,11.74
2022-09-15T01:26:56.099Z,11.72
2022-09-15T01:27:56.096Z,11.69
2022-09-15T01:28:56.107Z,11.67
2022-09-15T01:29:56.111Z,11.66
2022-09-15T01:30:56.161Z,11.65
2022-09-15T01:31:56.132Z,11.65
2022-09-15T01:32:56.094Z,11.66
2022-09-15T01:33:56.095Z,11.65
2022-09-15T01:34:56.085Z,11.64
2022-09-15T01:35:56.120Z,11.61
2022-09-15T01:36:56.096Z,11.57
2022-09-15T01:37:56.093Z,11.55
2022-09-15T01:38:56.100Z,11.55
2022-09-15T01:39:56.105Z,11.54
2022-09-15T01:40:56.103Z,11.55
2022-09-15T01:41:56.122Z,11.53
2022-09-15T01:42:56.107Z,11.53
2022-09-15T01:43:56.097Z,11.5
2022-09-15T01:44:56.093Z,11.48
2022-09-15T01:45:56.163Z,11.44
2022-09-15T01:46:56.097Z,11.44
2022-09-15T01:47:56.095Z,11.48
2022-09-15T01:48:56.097Z,11.51
2022-09-15T01:49:56.099Z,11.55
2022-09-15T01:50:56.122Z,11.57
2022-09-15T01:51:56.114Z,11.6
2022-09-15T01:52:56.121Z,11.62
2022-09-15T01:53:56.099Z,11.63
2022-09-15T01:54:56.100Z,11.64
2022-09-15T01:55:56.089Z,11.63
2022-09-15T01:56:56.095Z,11.66
2022-09-15T01:57:56.093Z,11.66
2022-09-15T01:58:56.082Z,11.66
2022-09-15T01:59:56.089Z,11.65
2022-09-15T02:00:56.147Z,11.63
2022-09-15T02:01:56.109Z,11.63
2022-09-15T02:02:56.107Z,11.63
2022-09-15T02:03:56.095Z,11.62
2022-09-15T02:04:56.085Z,11.6
2022-09-15T02:05:56.090Z,11.58
2022-09-15T02:06:56.085Z,11.56
2022-09-15T02:07:56.086Z,11.55
2022-09-15T02:08:56.090Z,11.55
2022-09-15T02:09:56.100Z,11.53
2022-09-15T02:10:56.109Z,11.51
2022-09-15T02:11:56.105Z,11.5
2022-09-15T02:12:56.115Z,11.48
2022-09-15T02:13:56.175Z,11.46
2022-09-15T02:14:56.113Z,11.44
2022-09-15T02:15:56.082Z,11.42
2022-09-15T02:16:56.116Z,11.39
2022-09-15T02:17:56.087Z,11.38
2022-09-15T02:18:56.157Z,11.36
2022-09-15T02:19:56.099Z,11.36
2022-09-15T02:20:56.093Z,11.35
2022-09-15T02:21:56.109Z,11.38
2022-09-15T02:22:56.091Z,11.38
2022-09-15T02:23:56.077Z,11.38
2022-09-15T02:24:56.115Z,11.37
2022-09-15T02:25:56.136Z,11.36
2022-09-15T02:26:56.104Z,11.34
2022-09-15T02:27:56.117Z,11.31
2022-09-15T02:28:56.331Z,11.29
2022-09-15T02:29:56.160Z,11.29
2022-09-15T02:30:56.070Z,11.28
2022-09-15T02:31:56.317Z,11.27
2022-09-15T02:32:56.524Z,11.26
2022-09-15T02:33:56.204Z,11.25
2022-09-15T02:34:56.090Z,11.22
2022-09-15T02:35:56.273Z,11.21
2022-09-15T02:36:56.103Z,11.18
2022-09-15T02:37:56.120Z,11.17
2022-09-15T02:38:56.095Z,11.15
2022-09-15T02:39:56.137Z,11.11
2022-09-15T02:40:56.097Z,11.09
2022-09-15T02:41:56.096Z,11.04
2022-09-15T02:42:56.122Z,10.99
2022-09-15T02:43:56.099Z,10.97
2022-09-15T02:44:56.098Z,10.98
2022-09-15T02:45:56.138Z,11
2022-09-15T02:46:56.112Z,11.05
2022-09-15T02:47:56.123Z,11.06
2022-09-15T02:48:56.091Z,11.08
2022-09-15T02:49:56.323Z,11.09
2022-09-15T02:50:56.084Z,11.11
2022-09-15T02:51:56.095Z,11.11
2022-09-15T02:52:56.098Z,11.14
2022-09-15T02:53:56.093Z,11.18
2022-09-15T02:54:56.093Z,11.22
2022-09-15T02:55:56.089Z,11.25
2022-09-15T02:56:56.093Z,11.27
2022-09-15T02:57:56.098Z,11.27
2022-09-15T02:58:56.213Z,11.27
2022-09-15T02:59:56.096Z,11.28
2022-09-15T03:00:56.155Z,11.29
2022-09-15T03:01:56.135Z,11.29
2022-09-15T03:02:56.177Z,11.3
2022-09-15T03:03:56.083Z,11.31
2022-09-15T03:04:56.090Z,11.31
2022-09-15T03:05:56.073Z,11.31
2022-09-15T03:06:56.089Z,11.29
2022-09-15T03:07:56.091Z,11.28
2022-09-15T03:08:56.076Z,11.26
2022-09-15T03:09:56.095Z,11.26
2022-09-15T03:10:56.072Z,11.24
2022-09-15T03:11:56.092Z,11.22
2022-09-15T03:12:56.085Z,11.21
2022-09-15T03:13:56.109Z,11.2
2022-09-15T03:14:56.292Z,11.19
2022-09-15T03:15:56.872Z,11.18
2022-09-15T03:16:56.646Z,11.17
2022-09-15T03:17:56.103Z,11.17
2022-09-15T03:18:56.333Z,11.17
2022-09-15T03:19:56.713Z,11.17
2022-09-15T03:20:56.106Z,11.17
2022-09-15T03:21:56.084Z,11.16
2022-09-15T03:22:56.116Z,11.16
2022-09-15T03:23:56.095Z,11.18
2022-09-15T03:24:56.085Z,11.19
2022-09-15T03:25:56.097Z,11.18
2022-09-15T03:26:56.101Z,11.19
2022-09-15T03:27:56.109Z,11.19
2022-09-15T03:28:56.096Z,11.2
2022-09-15T03:29:56.094Z,11.19
2022-09-15T03:30:56.122Z,11.21
2022-09-15T03:31:56.175Z,11.2
2022-09-15T03:32:56.082Z,11.21
2022-09-15T03:33:56.100Z,11.21
2022-09-15T03:34:59.221Z,11.21
2022-09-15T03:35:56.097Z,11.21
2022-09-15T03:36:56.090Z,11.21
2022-09-15T03:37:56.079Z,11.21
2022-09-15T03:38:56.071Z,11.22
2022-09-15T03:39:56.167Z,11.22
2022-09-15T03:40:56.094Z,11.23
2022-09-15T03:41:56.084Z,11.24
2022-09-15T03:42:56.243Z,11.24
2022-09-15T03:43:56.151Z,11.24
2022-09-15T03:44:56.443Z,11.26
2022-09-15T03:45:56.194Z,11.26
2022-09-15T03:46:56.435Z,11.27
2022-09-15T03:47:56.399Z,11.26
2022-09-15T03:48:56.685Z,11.28
2022-09-15T03:49:56.283Z,11.29
2022-09-15T03:50:56.559Z,11.3
2022-09-15T03:51:56.805Z,11.31
2022-09-15T03:52:58.862Z,11.31
2022-09-15T03:53:56.109Z,11.32
2022-09-15T03:54:56.136Z,11.33
2022-09-15T03:55:56.090Z,11.34
2022-09-15T03:56:56.055Z,11.35
2022-09-15T03:57:56.070Z,11.36
2022-09-15T03:58:56.210Z,11.37
2022-09-15T03:59:56.290Z,11.37
2022-09-15T04:00:56.133Z,11.38
2022-09-15T04:01:56.178Z,11.4
2022-09-15T04:02:56.101Z,11.4
2022-09-15T04:03:56.146Z,11.41
2022-09-15T04:04:56.330Z,11.43
2022-09-15T04:05:56.215Z,11.43
2022-09-15T04:06:56.124Z,11.44
2022-09-15T04:07:56.197Z,11.44
2022-09-15T04:08:56.287Z,11.46
2022-09-15T04:09:56.089Z,11.46
2022-09-15T04:10:56.099Z,11.47
2022-09-15T04:11:56.139Z,11.48
2022-09-15T04:12:56.401Z,11.48
2022-09-15T04:13:56.211Z,11.49
2022-09-15T04:14:56.459Z,11.49
2022-09-15T04:15:56.164Z,11.5
2022-09-15T04:16:56.141Z,11.51
2022-09-15T04:17:56.477Z,11.52
2022-09-15T04:18:56.252Z,11.52
2022-09-15T04:19:56.330Z,11.53
2022-09-15T04:20:56.094Z,11.54
2022-09-15T04:21:56.152Z,11.56
2022-09-15T04:22:56.192Z,11.57
2022-09-15T04:23:56.416Z,11.58
2022-09-15T04:24:56.333Z,11.59
2022-09-15T04:25:56.101Z,11.62
2022-09-15T04:26:56.267Z,11.62
2022-09-15T04:27:56.101Z,11.63
2022-09-15T04:28:56.503Z,11.64
2022-09-15T04:29:56.083Z,11.65
2022-09-15T04:30:56.080Z,11.67
2022-09-15T04:31:56.102Z,11.68
2022-09-15T04:32:56.080Z,11.69
2022-09-15T04:33:56.090Z,11.71
2022-09-15T04:34:56.100Z,11.72
2022-09-15T04:35:56.095Z,11.73
2022-09-15T04:36:56.087Z,11.72
2022-09-15T04:37:56.095Z,11.73
2022-09-15T04:38:56.081Z,11.74
2022-09-15T04:39:56.152Z,11.74
2022-09-15T04:40:56.102Z,11.74
2022-09-15T04:41:56.095Z,11.75
2022-09-15T04:42:56.097Z,11.75
2022-09-15T04:43:56.097Z,11.75
2022-09-15T04:44:56.099Z,11.77
2022-09-15T04:45:56.092Z,11.76
2022-09-15T04:46:56.101Z,11.78
2022-09-15T04:47:56.099Z,11.79
2022-09-15T04:48:56.151Z,11.79
2022-09-15T04:49:56.083Z,11.8
2022-09-15T04:50:56.095Z,11.8
2022-09-15T04:51:56.098Z,11.8
2022-09-15T04:52:56.089Z,11.82
2022-09-15T04:53:56.106Z,11.84
2022-09-15T04:54:56.086Z,11.85
2022-09-15T04:55:56.101Z,11.86
2022-09-15T04:56:56.102Z,11.88
2022-09-15T04:57:56.220Z,11.89
2022-09-15T04:59:03.414Z,11.91
2022-09-15T04:59:56.105Z,11.92
2022-09-15T05:00:56.110Z,11.93
2022-09-15T05:01:56.151Z,11.94
2022-09-15T05:02:56.123Z,11.98
2022-09-15T05:03:56.089Z,12
2022-09-15T05:04:56.102Z,12.01
2022-09-15T05:05:56.100Z,12.02
2022-09-15T05:06:56.116Z,12.04
2022-09-15T05:07:56.116Z,12.07
2022-09-15T05:08:56.118Z,12.08
2022-09-15T05:09:56.093Z,12.09
2022-09-15T05:10:56.080Z,12.11
2022-09-15T05:11:56.091Z,12.12
2022-09-15T05:12:56.091Z,12.13
2022-09-15T05:13:56.132Z,12.14
2022-09-15T05:14:56.090Z,12.15
2022-09-15T05:15:56.131Z,12.15
2022-09-15T05:16:56.078Z,12.16
2022-09-15T05:17:56.106Z,12.16
2022-09-15T05:18:56.096Z,12.15
2022-09-15T05:19:56.111Z,12.16
2022-09-15T05:20:56.111Z,12.16
2022-09-15T05:21:56.084Z,12.16
2022-09-15T05:22:56.103Z,12.17
2022-09-15T05:23:56.081Z,12.18
2022-09-15T05:24:56.080Z,12.18
2022-09-15T05:25:56.088Z,12.18
2022-09-15T05:26:56.087Z,12.18
2022-09-15T05:27:56.119Z,12.19
2022-09-15T05:28:56.088Z,12.19
2022-09-15T05:30:16.463Z,12.2
2022-09-15T05:30:56.303Z,12.21
2022-09-15T05:31:56.169Z,12.22
2022-09-15T05:32:56.125Z,12.22
2022-09-15T05:33:56.104Z,12.24
2022-09-15T05:34:56.087Z,12.25
2022-09-15T05:35:56.094Z,12.26
2022-09-15T05:36:56.102Z,12.27
2022-09-15T05:37:56.125Z,12.28
2022-09-15T05:38:56.085Z,12.29
2022-09-15T05:39:56.138Z,12.31
2022-09-15T05:40:56.079Z,12.32
2022-09-15T05:41:56.180Z,12.34
2022-09-15T05:42:56.190Z,12.35
2022-09-15T05:43:56.445Z,12.37
2022-09-15T05:44:56.147Z,12.38
2022-09-15T05:45:56.062Z,12.39
2022-09-15T05:46:56.345Z,12.4
2022-09-15T05:47:56.646Z,12.42
2022-09-15T05:48:56.194Z,12.44
2022-09-15T05:49:56.091Z,12.45
2022-09-15T05:50:56.123Z,12.46
2022-09-15T05:51:56.407Z,12.47
2022-09-15T05:52:56.112Z,12.48
2022-09-15T05:53:56.109Z,12.49
2022-09-15T05:54:59.497Z,12.52
2022-09-15T05:55:56.087Z,12.53
2022-09-15T05:56:56.086Z,12.58
2022-09-15T05:57:56.110Z,12.6
2022-09-15T05:58:56.092Z,12.61
2022-09-15T05:59:56.085Z,12.63
2022-09-15T06:00:56.093Z,12.64
2022-09-15T06:01:56.108Z,12.66
2022-09-15T06:02:56.167Z,12.67
2022-09-15T06:03:56.087Z,12.7
2022-09-15T06:04:56.257Z,12.73
2022-09-15T06:05:56.077Z,12.76
2022-09-15T06:06:56.071Z,12.77
2022-09-15T06:07:56.086Z,12.81
2022-09-15T06:08:59.510Z,12.83
2022-09-15T06:09:56.078Z,12.84
2022-09-15T06:10:56.088Z,12.87
2022-09-15T06:11:56.082Z,12.88
2022-09-15T06:12:56.083Z,12.87
2022-09-15T06:13:56.086Z,12.88
2022-09-15T06:14:56.100Z,12.9
2022-09-15T06:15:56.105Z,12.92
2022-09-15T06:16:56.091Z,12.95
2022-09-15T06:17:56.082Z,12.99
2022-09-15T06:18:56.077Z,13.02
2022-09-15T06:19:56.074Z,13.03
2022-09-15T06:20:56.081Z,13.05
2022-09-15T06:21:56.071Z,13.09
2022-09-15T06:22:56.173Z,13.13
2022-09-15T06:23:56.590Z,13.14
2022-09-15T06:24:56.224Z,13.17
2022-09-15T06:25:56.609Z,13.17
2022-09-15T06:26:56.835Z,13.18
2022-09-15T06:27:56.101Z,13.21
2022-09-15T06:28:56.314Z,13.23
2022-09-15T06:29:56.695Z,13.27
2022-09-15T06:30:56.090Z,13.31
2022-09-15T06:31:56.104Z,13.35
2022-09-15T06:32:56.075Z,13.37
2022-09-15T06:33:56.144Z,13.38
2022-09-15T06:34:56.143Z,13.4
2022-09-15T06:35:56.187Z,13.4
2022-09-15T06:36:56.068Z,13.41
2022-09-15T06:37:56.081Z,13.43
2022-09-15T06:38:56.109Z,13.43
2022-09-15T06:39:56.104Z,13.45
2022-09-15T06:40:56.074Z,13.4
2022-09-15T06:42:02.552Z,13.38
2022-09-15T06:42:56.099Z,13.39
2022-09-15T06:43:56.099Z,13.38
2022-09-15T06:44:56.091Z,13.37
2022-09-15T06:45:56.135Z,13.36
2022-09-15T06:46:56.108Z,13.35
2022-09-15T06:48:20.536Z,13.34
2022-09-15T06:48:56.093Z,13.35
2022-09-15T06:49:56.088Z,13.32
2022-09-15T06:50:56.102Z,13.33
2022-09-15T06:51:56.124Z,13.34
2022-09-15T06:52:56.114Z,13.35
2022-09-15T06:53:56.097Z,13.34
2022-09-15T06:54:56.124Z,13.36
2022-09-15T06:55:56.096Z,13.37
2022-09-15T06:56:56.107Z,13.38
2022-09-15T06:57:56.086Z,13.41
2022-09-15T06:58:56.081Z,13.43
2022-09-15T06:59:56.103Z,13.43
2022-09-15T07:00:56.091Z,13.45
2022-09-15T07:01:56.166Z,13.49
2022-09-15T07:02:56.138Z,13.51
2022-09-15T07:03:56.091Z,13.51
2022-09-15T07:04:56.116Z,13.52
2022-09-15T07:05:56.148Z,13.51
2022-09-15T07:06:56.117Z,13.5
2022-09-15T07:07:56.111Z,13.52
2022-09-15T07:08:56.094Z,13.54
2022-09-15T07:09:56.089Z,13.54
2022-09-15T07:10:56.092Z,13.54
2022-09-15T07:11:56.091Z,13.56
2022-09-15T07:12:56.117Z,13.56
2022-09-15T07:13:56.092Z,13.59
2022-09-15T07:14:56.106Z,13.6
2022-09-15T07:15:56.131Z,13.64
2022-09-15T07:16:56.220Z,13.67
2022-09-15T07:17:56.106Z,13.71
2022-09-15T07:18:56.099Z,13.7
2022-09-15T07:19:56.063Z,13.72
2022-09-15T07:20:56.193Z,13.76
2022-09-15T07:21:56.062Z,13.78
2022-09-15T07:22:56.099Z,13.8
2022-09-15T07:23:56.053Z,13.78
2022-09-15T07:24:56.328Z,13.78
2022-09-15T07:25:56.116Z,13.79
2022-09-15T07:26:56.071Z,13.81
2022-09-15T07:27:56.577Z,13.83
2022-09-15T07:28:56.535Z,13.87
2022-09-15T07:29:56.790Z,13.87
2022-09-15T07:30:56.055Z,13.9
2022-09-15T07:31:56.483Z,13.9
2022-09-15T07:32:56.441Z,13.93
2022-09-15T07:33:56.221Z,13.95
2022-09-15T07:34:58.423Z,13.94
2022-09-15T07:35:56.475Z,13.91
2022-09-15T07:36:56.746Z,13.89
2022-09-15T07:37:56.181Z,13.91
2022-09-15T07:38:56.333Z,13.93
2022-09-15T07:39:56.325Z,13.97
2022-09-15T07:40:56.102Z,14
2022-09-15T07:41:56.090Z,14.03
2022-09-15T07:42:56.119Z,14.08
2022-09-15T07:43:56.096Z,14.1
2022-09-15T07:44:56.104Z,14.09
2022-09-15T07:45:56.177Z,14.13
2022-09-15T07:46:56.125Z,14.19
2022-09-15T07:47:56.131Z,14.22
2022-09-15T07:48:56.108Z,14.23
2022-09-15T07:49:56.099Z,14.23
2022-09-15T07:50:56.094Z,14.24
2022-09-15T07:51:56.093Z,14.26
2022-09-15T07:52:56.128Z,14.26
2022-09-15T07:53:56.090Z,14.25
2022-09-15T07:54:56.090Z,14.28
2022-09-15T07:55:56.087Z,14.29
2022-09-15T07:56:56.075Z,14.3
2022-09-15T07:57:56.108Z,14.34
2022-09-15T07:58:56.128Z,14.3
2022-09-15T07:59:56.207Z,14.28
2022-09-15T08:00:56.214Z,14.31
2022-09-15T08:01:56.114Z,14.34
2022-09-15T08:02:56.090Z,14.34
2022-09-15T08:03:56.130Z,14.33
2022-09-15T08:04:56.107Z,14.36
2022-09-15T08:05:56.084Z,14.39
2022-09-15T08:06:56.095Z,14.44
2022-09-15T08:07:56.101Z,14.44
2022-09-15T08:09:00.295Z,14.43
2022-09-15T08:09:56.106Z,14.42
2022-09-15T08:10:56.183Z,14.44
2022-09-15T08:11:56.074Z,14.4
2022-09-15T08:12:56.090Z,14.43
2022-09-15T08:13:56.120Z,14.47
2022-09-15T08:14:56.085Z,14.53
2022-09-15T08:15:56.147Z,14.57
2022-09-15T08:16:56.084Z,14.56
2022-09-15T08:17:56.101Z,14.57
2022-09-15T08:18:56.137Z,14.6
2022-09-15T08:19:56.201Z,14.65
2022-09-15T08:20:56.100Z,14.6
2022-09-15T08:21:56.102Z,14.6
2022-09-15T08:22:56.099Z,14.61
2022-09-15T08:23:56.360Z,14.67
2022-09-15T08:24:56.085Z,14.75
2022-09-15T08:25:56.082Z,14.8
2022-09-15T08:26:56.092Z,14.82
2022-09-15T08:27:56.102Z,14.8
2022-09-15T08:28:56.112Z,14.84
2022-09-15T08:29:56.089Z,14.86
2022-09-15T08:30:56.183Z,14.86
2022-09-15T08:31:56.165Z,14.9
2022-09-15T08:32:56.129Z,14.93
2022-09-15T08:33:56.220Z,14.99
2022-09-15T08:34:56.205Z,15.04
2022-09-15T08:35:56.060Z,15.07
2022-09-15T08:36:56.175Z,15.12
2022-09-15T08:37:56.048Z,15.19
2022-09-15T08:38:56.060Z,15.23
2022-09-15T08:39:56.346Z,15.27
2022-09-15T08:40:56.072Z,15.32
2022-09-15T08:41:56.287Z,15.38
2022-09-15T08:42:56.512Z,15.41
2022-09-15T08:43:56.916Z,15.49
2022-09-15T08:44:56.061Z,15.56
2022-09-15T08:45:56.345Z,15.49
2022-09-15T08:46:56.631Z,15.52
2022-09-15T08:47:56.487Z,15.57
2022-09-15T08:49:02.707Z,15.61
2022-09-15T08:49:56.066Z,15.66
2022-09-15T08:50:56.115Z,15.67
2022-09-15T08:51:56.145Z,15.65
2022-09-15T08:52:56.455Z,15.54
2022-09-15T08:53:56.609Z,15.43
2022-09-15T08:54:56.816Z,15.37
2022-09-15T08:55:56.223Z,15.35
2022-09-15T08:56:56.459Z,15.34
2022-09-15T08:57:56.241Z,15.34
2022-09-15T08:58:56.568Z,15.34
2022-09-15T08:59:56.109Z,15.37
2022-09-15T09:00:56.079Z,15.38
2022-09-15T09:01:56.351Z,15.4
2022-09-15T09:02:56.159Z,15.42
2022-09-15T09:03:56.234Z,15.41
2022-09-15T09:04:56.103Z,15.43
2022-09-15T09:05:56.496Z,15.5
2022-09-15T09:06:56.096Z,15.58
2022-09-15T09:07:56.097Z,15.67
2022-09-15T09:08:56.104Z,15.7
2022-09-15T09:09:56.092Z,15.71
2022-09-15T09:10:56.087Z,15.73
2022-09-15T09:11:56.098Z,15.74
2022-09-15T09:12:56.084Z,15.71
2022-09-15T09:13:56.081Z,15.72
2022-09-15T09:14:56.085Z,15.73
2022-09-15T09:15:56.171Z,15.73
2022-09-15T09:16:56.098Z,15.71
2022-09-15T09:17:56.081Z,15.74
2022-09-15T09:18:56.083Z,15.79
2022-09-15T09:19:56.081Z,15.77
2022-09-15T09:20:56.097Z,15.79
2022-09-15T09:21:56.097Z,15.83
2022-09-15T09:22:56.083Z,15.84
2022-09-15T09:23:56.078Z,15.86
2022-09-15T09:24:56.094Z,15.83
2022-09-15T09:25:56.098Z,15.9
2022-09-15T09:26:56.109Z,16
2022-09-15T09:27:56.095Z,16.09
2022-09-15T09:28:56.082Z,16.13
2022-09-15T09:29:56.082Z,16.24
2022-09-15T09:30:56.117Z,16.37
2022-09-15T09:31:56.091Z,16.51
2022-09-15T09:32:56.083Z,16.59
2022-09-15T09:33:56.188Z,16.71
2022-09-15T09:34:56.077Z,16.86
2022-09-15T09:35:56.078Z,16.97
2022-09-15T09:36:56.074Z,17.05
2022-09-15T09:37:56.289Z,17.09
2022-09-15T09:38:56.051Z,17.16
2022-09-15T09:39:56.439Z,17.2
2022-09-15T09:41:03.570Z,17.3
2022-09-15T09:41:56.732Z,17.36
2022-09-15T09:42:56.058Z,17.37
2022-09-15T09:43:56.370Z,17.42
2022-09-15T09:44:56.668Z,17.38
2022-09-15T09:45:56.099Z,17.35
2022-09-15T09:46:56.088Z,17.17
2022-09-15T09:48:01.545Z,17.15
2022-09-15T09:48:56.096Z,17.1
2022-09-15T09:49:56.100Z,17.05
2022-09-15T09:50:56.159Z,17.03
2022-09-15T09:51:56.079Z,17.01
2022-09-15T09:52:56.085Z,16.93
2022-09-15T09:53:56.082Z,16.87
2022-09-15T09:54:56.114Z,16.83
2022-09-15T09:55:56.091Z,16.74
2022-09-15T09:56:56.092Z,16.75
2022-09-15T09:57:56.112Z,16.66
2022-09-15T09:58:56.088Z,16.63
2022-09-15T09:59:56.105Z,16.63
2022-09-15T10:00:56.262Z,16.69
2022-09-15T10:01:56.223Z,16.69
2022-09-15T10:02:56.096Z,16.6
2022-09-15T10:03:56.091Z,16.59
2022-09-15T10:04:56.214Z,16.58
2022-09-15T10:05:56.120Z,16.52
2022-09-15T10:06:56.088Z,16.53
2022-09-15T10:07:56.093Z,16.4
2022-09-15T10:08:56.098Z,16.39
2022-09-15T10:09:56.097Z,16.46
2022-09-15T10:10:56.139Z,16.58
2022-09-15T10:11:56.083Z,16.64
2022-09-15T10:12:56.115Z,16.67
2022-09-15T10:13:56.082Z,16.69
2022-09-15T10:14:56.099Z,16.77
2022-09-15T10:15:56.096Z,16.85
2022-09-15T10:16:56.130Z,16.9
2022-09-15T10:17:56.081Z,16.94
2022-09-15T10:18:56.085Z,16.87
2022-09-15T10:19:56.109Z,16.91
2022-09-15T10:20:56.123Z,17.02
2022-09-15T10:21:56.097Z,17.12
2022-09-15T10:22:56.091Z,17.26
2022-09-15T10:23:56.079Z,17.36
2022-09-15T10:24:56.091Z,17.43
2022-09-15T10:26:00.078Z,17.56
2022-09-15T10:26:56.093Z,17.69
2022-09-15T10:27:56.095Z,17.77
2022-09-15T10:28:56.092Z,17.84
2022-09-15T10:29:56.080Z,17.79
2022-09-15T10:30:56.134Z,17.81
2022-09-15T10:31:56.226Z,17.72
2022-09-15T10:32:56.121Z,17.55
2022-09-15T10:33:56.231Z,17.43
2022-09-15T10:34:56.073Z,17.43
2022-09-15T10:35:56.235Z,17.43
2022-09-15T10:36:56.202Z,17.62
2022-09-15T10:37:56.563Z,17.78
2022-09-15T10:38:56.188Z,17.94
2022-09-15T10:39:56.581Z,17.98
2022-09-15T10:40:56.555Z,18.02
2022-09-15T10:41:56.819Z,18.21
2022-09-15T10:42:57.048Z,18.27
2022-09-15T10:43:56.605Z,18.39
2022-09-15T10:44:56.265Z,18.49
2022-09-15T10:45:56.259Z,18.6
2022-09-15T10:46:56.493Z,18.78
2022-09-15T10:47:56.483Z,18.94
2022-09-15T10:48:56.073Z,19.03
2022-09-15T10:49:56.317Z,19
2022-09-15T10:50:56.625Z,19.02
2022-09-15T10:51:56.149Z,18.91
2022-09-15T10:52:56.075Z,18.77
2022-09-15T10:53:57.789Z,18.5
2022-09-15T10:54:56.107Z,18.35
2022-09-15T10:55:56.103Z,18.11
2022-09-15T10:56:56.185Z,17.83
2022-09-15T10:57:56.092Z,17.63
2022-09-15T10:58:56.094Z,17.49
2022-09-15T10:59:56.114Z,17.36
2022-09-15T11:00:56.112Z,17.29
2022-09-15T11:01:56.196Z,17.22
2022-09-15T11:02:56.097Z,17.18
2022-09-15T11:03:56.082Z,17.16
2022-09-15T11:04:56.092Z,17.12
2022-09-15T11:05:56.092Z,17.09
2022-09-15T11:06:56.088Z,17.06
2022-09-15T11:07:56.098Z,16.99
2022-09-15T11:08:56.085Z,16.9
2022-09-15T11:09:56.083Z,16.74
2022-09-15T11:10:56.093Z,16.61
2022-09-15T11:11:56.081Z,16.53
2022-09-15T11:12:56.087Z,16.48
2022-09-15T11:13:56.092Z,16.44
2022-09-15T11:14:56.088Z,16.44
2022-09-15T11:15:56.100Z,16.5
2022-09-15T11:16:56.083Z,16.55
2022-09-15T11:17:56.106Z,16.62
2022-09-15T11:18:56.080Z,16.71
2022-09-15T11:19:56.096Z,16.8
2022-09-15T11:20:56.091Z,16.88
2022-09-15T11:21:56.092Z,16.95
2022-09-15T11:22:56.111Z,16.99
2022-09-15T11:23:56.094Z,17.05
2022-09-15T11:24:56.110Z,17.11
2022-09-15T11:25:56.102Z,17.16
2022-09-15T11:26:56.122Z,17.06
2022-09-15T11:27:56.094Z,16.96
2022-09-15T11:28:56.098Z,16.89
2022-09-15T11:29:56.099Z,16.88
2022-09-15T11:30:56.097Z,16.83
2022-09-15T11:31:56.260Z,16.86
2022-09-15T11:32:59.113Z,16.9
2022-09-15T11:33:56.088Z,16.96
2022-09-15T11:34:56.084Z,17.03
2022-09-15T11:35:56.093Z,17.1
2022-09-15T11:36:56.098Z,17.13
2022-09-15T11:37:56.080Z,17.16
2022-09-15T11:38:56.091Z,17.12
2022-09-15T11:39:56.165Z,17.09
2022-09-15T11:40:56.104Z,17.03
2022-09-15T11:41:56.081Z,17.01
2022-09-15T11:42:56.099Z,16.93
2022-09-15T11:43:56.059Z,16.95
2022-09-15T11:44:56.074Z,16.9
2022-09-15T11:45:56.062Z,16.85
2022-09-15T11:46:56.131Z,16.81
2022-09-15T11:47:56.148Z,16.83
2022-09-15T11:48:56.151Z,16.84
2022-09-15T11:49:56.440Z,16.88
2022-09-15T11:50:56.082Z,16.9
2022-09-15T11:51:56.500Z,16.95
2022-09-15T11:52:57.591Z,17.03
2022-09-15T11:53:56.925Z,17.14
2022-09-15T11:54:56.501Z,17.22
2022-09-15T11:55:56.261Z,17.3
2022-09-15T11:56:56.089Z,17.44
2022-09-15T11:57:56.071Z,17.51
2022-09-15T11:58:56.154Z,17.56
2022-09-15T11:59:56.063Z,17.62
2022-09-15T12:00:56.094Z,17.68
2022-09-15T12:01:56.110Z,17.64
2022-09-15T12:02:56.384Z,17.58
2022-09-15T12:03:56.228Z,17.63
2022-09-15T12:04:56.069Z,17.73
2022-09-15T12:05:56.225Z,17.78
2022-09-15T12:06:56.441Z,17.82
2022-09-15T12:07:56.223Z,17.74
2022-09-15T12:08:56.079Z,17.75
2022-09-15T12:09:56.191Z,17.77
2022-09-15T12:10:56.148Z,17.78
2022-09-15T12:11:56.451Z,17.83
2022-09-15T12:12:56.049Z,17.98
2022-09-15T12:13:56.282Z,18.18
2022-09-15T12:14:56.222Z,18.46
2022-09-15T12:15:56.553Z,18.91
2022-09-15T12:16:56.267Z,19.04
2022-09-15T12:17:56.440Z,19.33
2022-09-15T12:18:56.096Z,19.26
2022-09-15T12:19:56.154Z,19.29
2022-09-15T12:20:56.395Z,19.33
2022-09-15T12:21:56.087Z,19.64
2022-09-15T12:22:56.102Z,19.85
2022-09-15T12:23:56.094Z,19.92
2022-09-15T12:25:01.084Z,19.71
2022-09-15T12:25:56.093Z,19.5
2022-09-15T12:26:56.100Z,19.44
2022-09-15T12:27:56.097Z,19.48
2022-09-15T12:28:56.093Z,19.49
2022-09-15T12:29:56.106Z,19.63
2022-09-15T12:30:56.094Z,19.7
2022-09-15T12:31:56.085Z,19.62
2022-09-15T12:32:56.100Z,19.71
2022-09-15T12:33:56.099Z,19.77
2022-09-15T12:34:56.103Z,19.69
2022-09-15T12:35:56.109Z,19.8
2022-09-15T12:36:56.370Z,20.07
2022-09-15T12:37:56.095Z,20.28
2022-09-15T12:38:56.098Z,20.22
2022-09-15T12:39:56.138Z,19.84
2022-09-15T12:40:56.086Z,19.5
2022-09-15T12:41:56.087Z,19.25
2022-09-15T12:42:56.088Z,18.96
2022-09-15T12:43:56.090Z,18.95
2022-09-15T12:44:56.148Z,19.02
2022-09-15T12:45:56.158Z,19.03
2022-09-15T12:46:56.172Z,18.89
2022-09-15T12:47:56.089Z,18.78
2022-09-15T12:48:56.099Z,18.75
2022-09-15T12:49:56.125Z,18.52
2022-09-15T12:50:56.089Z,18.4
2022-09-15T12:51:56.099Z,18.31
2022-09-15T12:52:56.094Z,18.36
2022-09-15T12:53:56.146Z,18.41
2022-09-15T12:54:56.114Z,18.45
2022-09-15T12:55:56.088Z,18.36